sensor_id;sensor_type;location;lat;lon;timestamp;P1;durP1;ratioP1;P2;durP2;ratioP2
47251;SDS011;32991;51.374;11.586;2023-02-23T00:02:07;36.97;;;22.98;;
47251;SDS011;32991;51.374;11.586;2023-02-23T00:04:36;38.97;;;24.83;;
47251;SDS011;32991;51.374;11.586;2023-02-23T00:07:04;34.13;;;22.08;;
47251;SDS011;32991;51.374;11.586;2023-02-23T00:09:34;38.08;;;23.50;;
47251;SDS011;32991;51.374;11.586;2023-02-23T00:12:02;37.35;;;22.00;;
47251;SDS011;32991;51.374;11.586;2023-02-23T00:14:36;32.63;;;21.63;;
47251;SDS011;32991;51.374;11.586;2023-02-23T00:17:06;33.55;;;21.08;;
47251;SDS011;32991;51.374;11.586;2023-02-23T00:19:41;38.10;;;22.05;;
47251;SDS011;32991;51.374;11.586;2023-02-23T00:22:09;37.13;;;22.92;;
47251;SDS011;32991;51.374;11.586;2023-02-23T00:24:37;35.75;;;22.77;;
47251;SDS011;32991;51.374;11.586;2023-02-23T00:27:07;37.10;;;21.55;;
47251;SDS011;32991;51.374;11.586;2023-02-23T00:29:33;40.60;;;21.05;;
47251;SDS011;32991;51.374;11.586;2023-02-23T00:32:07;38.17;;;23.23;;
47251;SDS011;32991;51.374;11.586;2023-02-23T00:34:34;33.65;;;21.52;;
47251;SDS011;32991;51.374;11.586;2023-02-23T00:37:02;32.90;;;21.45;;
47251;SDS011;32991;51.374;11.586;2023-02-23T00:39:33;34.38;;;20.50;;
47251;SDS011;32991;51.374;11.586;2023-02-23T00:42:00;33.08;;;20.70;;
47251;SDS011;32991;51.374;11.586;2023-02-23T00:44:29;38.25;;;22.52;;
47251;SDS011;32991;51.374;11.586;2023-02-23T00:46:56;36.67;;;21.67;;
47251;SDS011;32991;51.374;11.586;2023-02-23T00:49:23;35.17;;;21.42;;
47251;SDS011;32991;51.374;11.586;2023-02-23T00:51:49;36.65;;;21.88;;
47251;SDS011;32991;51.374;11.586;2023-02-23T00:54:20;35.78;;;22.35;;
47251;SDS011;32991;51.374;11.586;2023-02-23T00:56:47;41.00;;;24.67;;
47251;SDS011;32991;51.374;11.586;2023-02-23T00:59:14;39.22;;;24.13;;
47251;SDS011;32991;51.374;11.586;2023-02-23T01:01:41;46.03;;;26.38;;
47251;SDS011;32991;51.374;11.586;2023-02-23T01:04:09;42.95;;;26.88;;
47251;SDS011;32991;51.374;11.586;2023-02-23T01:06:37;39.10;;;23.90;;
47251;SDS011;32991;51.374;11.586;2023-02-23T01:09:22;38.97;;;24.50;;
47251;SDS011;32991;51.374;11.586;2023-02-23T01:11:56;39.90;;;24.30;;
47251;SDS011;32991;51.374;11.586;2023-02-23T01:14:27;34.80;;;23.17;;
47251;SDS011;32991;51.374;11.586;2023-02-23T01:16:54;39.92;;;24.60;;
47251;SDS011;32991;51.374;11.586;2023-02-23T01:19:20;39.55;;;23.38;;
47251;SDS011;32991;51.374;11.586;2023-02-23T01:21:48;36.50;;;23.42;;
47251;SDS011;32991;51.374;11.586;2023-02-23T01:24:16;37.03;;;23.58;;
47251;SDS011;32991;51.374;11.586;2023-02-23T01:26:45;32.75;;;22.90;;
47251;SDS011;32991;51.374;11.586;2023-02-23T01:29:13;35.83;;;22.35;;
47251;SDS011;32991;51.374;11.586;2023-02-23T01:31:45;37.75;;;23.20;;
47251;SDS011;32991;51.374;11.586;2023-02-23T01:34:16;36.75;;;23.40;;
47251;SDS011;32991;51.374;11.586;2023-02-23T01:36:44;33.90;;;22.85;;
47251;SDS011;32991;51.374;11.586;2023-02-23T01:39:12;36.80;;;21.75;;
47251;SDS011;32991;51.374;11.586;2023-02-23T01:41:40;31.42;;;21.88;;
47251;SDS011;32991;51.374;11.586;2023-02-23T01:46:41;33.63;;;22.42;;
47251;SDS011;32991;51.374;11.586;2023-02-23T01:49:12;29.85;;;20.85;;
47251;SDS011;32991;51.374;11.586;2023-02-23T01:51:45;30.08;;;20.80;;
47251;SDS011;32991;51.374;11.586;2023-02-23T01:54:17;32.72;;;21.17;;
47251;SDS011;32991;51.374;11.586;2023-02-23T01:56:51;33.95;;;20.52;;
47251;SDS011;32991;51.374;11.586;2023-02-23T01:59:27;30.85;;;19.23;;
47251;SDS011;32991;51.374;11.586;2023-02-23T02:02:00;32.78;;;21.10;;
47251;SDS011;32991;51.374;11.586;2023-02-23T02:04:31;32.85;;;19.55;;
47251;SDS011;32991;51.374;11.586;2023-02-23T02:07:10;32.22;;;20.85;;
47251;SDS011;32991;51.374;11.586;2023-02-23T02:09:47;34.55;;;20.85;;
47251;SDS011;32991;51.374;11.586;2023-02-23T02:12:51;32.00;;;20.70;;
47251;SDS011;32991;51.374;11.586;2023-02-23T02:15:20;33.28;;;20.38;;
47251;SDS011;32991;51.374;11.586;2023-02-23T02:18:07;30.05;;;19.20;;
47251;SDS011;32991;51.374;11.586;2023-02-23T02:21:01;37.72;;;21.80;;
47251;SDS011;32991;51.374;11.586;2023-02-23T02:23:52;33.20;;;22.25;;
47251;SDS011;32991;51.374;11.586;2023-02-23T02:26:32;35.42;;;22.58;;
47251;SDS011;32991;51.374;11.586;2023-02-23T02:29:13;33.80;;;20.95;;
47251;SDS011;32991;51.374;11.586;2023-02-23T02:51:45;38.92;;;24.33;;
47251;SDS011;32991;51.374;11.586;2023-02-23T02:57:00;43.45;;;25.05;;
47251;SDS011;32991;51.374;11.586;2023-02-23T02:59:29;37.83;;;23.88;;
47251;SDS011;32991;51.374;11.586;2023-02-23T03:02:16;43.28;;;23.52;;
47251;SDS011;32991;51.374;11.586;2023-02-23T03:05:17;36.63;;;23.90;;
47251;SDS011;32991;51.374;11.586;2023-02-23T03:08:20;40.47;;;24.70;;
47251;SDS011;32991;51.374;11.586;2023-02-23T03:11:13;37.63;;;24.05;;
47251;SDS011;32991;51.374;11.586;2023-02-23T03:14:08;40.90;;;24.10;;
47251;SDS011;32991;51.374;11.586;2023-02-23T03:23:09;42.85;;;25.20;;
47251;SDS011;32991;51.374;11.586;2023-02-23T03:26:13;38.67;;;24.92;;
47251;SDS011;32991;51.374;11.586;2023-02-23T03:29:15;44.53;;;25.50;;
47251;SDS011;32991;51.374;11.586;2023-02-23T03:32:09;37.05;;;24.35;;
47251;SDS011;32991;51.374;11.586;2023-02-23T03:35:04;40.67;;;24.52;;
47251;SDS011;32991;51.374;11.586;2023-02-23T03:40:56;37.28;;;24.55;;
47251;SDS011;32991;51.374;11.586;2023-02-23T03:43:49;36.83;;;25.52;;
47251;SDS011;32991;51.374;11.586;2023-02-23T03:49:25;36.75;;;24.70;;
47251;SDS011;32991;51.374;11.586;2023-02-23T03:52:23;37.83;;;25.25;;
47251;SDS011;32991;51.374;11.586;2023-02-23T03:55:14;36.13;;;25.48;;
47251;SDS011;32991;51.374;11.586;2023-02-23T03:58:01;36.13;;;25.10;;
47251;SDS011;32991;51.374;11.586;2023-02-23T04:00:48;37.17;;;24.90;;
47251;SDS011;32991;51.374;11.586;2023-02-23T04:03:35;31.80;;;22.50;;
47251;SDS011;32991;51.374;11.586;2023-02-23T04:06:27;36.97;;;25.17;;
47251;SDS011;32991;51.374;11.586;2023-02-23T04:09:16;39.20;;;24.85;;
47251;SDS011;32991;51.374;11.586;2023-02-23T04:20:02;36.50;;;24.27;;
47251;SDS011;32991;51.374;11.586;2023-02-23T04:22:33;39.38;;;24.25;;
47251;SDS011;32991;51.374;11.586;2023-02-23T04:25:00;37.67;;;24.63;;
47251;SDS011;32991;51.374;11.586;2023-02-23T04:27:27;34.47;;;24.83;;
47251;SDS011;32991;51.374;11.586;2023-02-23T04:29:53;36.95;;;25.60;;
47251;SDS011;32991;51.374;11.586;2023-02-23T04:32:20;33.42;;;23.52;;
47251;SDS011;32991;51.374;11.586;2023-02-23T04:34:46;35.42;;;25.25;;
47251;SDS011;32991;51.374;11.586;2023-02-23T04:37:13;41.50;;;26.27;;
47251;SDS011;32991;51.374;11.586;2023-02-23T04:39:42;42.30;;;26.17;;
47251;SDS011;32991;51.374;11.586;2023-02-23T04:42:14;41.38;;;27.55;;
47251;SDS011;32991;51.374;11.586;2023-02-23T04:44:42;39.85;;;27.17;;
47251;SDS011;32991;51.374;11.586;2023-02-23T04:47:09;38.40;;;27.05;;
47251;SDS011;32991;51.374;11.586;2023-02-23T04:49:37;39.40;;;27.33;;
47251;SDS011;32991;51.374;11.586;2023-02-23T04:52:03;41.50;;;26.73;;
47251;SDS011;32991;51.374;11.586;2023-02-23T04:54:30;45.58;;;28.08;;
47251;SDS011;32991;51.374;11.586;2023-02-23T04:56:56;43.78;;;27.77;;
47251;SDS011;32991;51.374;11.586;2023-02-23T04:59:23;40.45;;;27.50;;
47251;SDS011;32991;51.374;11.586;2023-02-23T05:01:52;37.42;;;26.80;;
47251;SDS011;32991;51.374;11.586;2023-02-23T05:04:19;41.80;;;28.25;;
47251;SDS011;32991;51.374;11.586;2023-02-23T05:06:46;45.60;;;29.52;;
47251;SDS011;32991;51.374;11.586;2023-02-23T05:09:13;42.55;;;28.48;;
47251;SDS011;32991;51.374;11.586;2023-02-23T05:11:40;41.75;;;28.02;;
47251;SDS011;32991;51.374;11.586;2023-02-23T05:14:07;42.63;;;28.45;;
47251;SDS011;32991;51.374;11.586;2023-02-23T05:16:34;40.88;;;28.27;;
47251;SDS011;32991;51.374;11.586;2023-02-23T05:19:01;43.17;;;28.48;;
47251;SDS011;32991;51.374;11.586;2023-02-23T05:21:28;40.63;;;27.90;;
47251;SDS011;32991;51.374;11.586;2023-02-23T05:23:54;38.72;;;27.10;;
47251;SDS011;32991;51.374;11.586;2023-02-23T05:26:22;37.15;;;26.35;;
47251;SDS011;32991;51.374;11.586;2023-02-23T05:28:48;36.40;;;25.85;;
47251;SDS011;32991;51.374;11.586;2023-02-23T05:31:15;39.42;;;26.05;;
47251;SDS011;32991;51.374;11.586;2023-02-23T05:33:42;38.50;;;26.90;;
47251;SDS011;32991;51.374;11.586;2023-02-23T05:36:13;40.72;;;26.85;;
47251;SDS011;32991;51.374;11.586;2023-02-23T05:38:43;38.35;;;25.85;;
47251;SDS011;32991;51.374;11.586;2023-02-23T05:41:15;39.63;;;26.63;;
47251;SDS011;32991;51.374;11.586;2023-02-23T05:43:46;39.55;;;27.15;;
47251;SDS011;32991;51.374;11.586;2023-02-23T05:46:15;41.60;;;27.85;;
47251;SDS011;32991;51.374;11.586;2023-02-23T05:48:43;40.88;;;28.50;;
47251;SDS011;32991;51.374;11.586;2023-02-23T05:51:10;38.17;;;27.63;;
47251;SDS011;32991;51.374;11.586;2023-02-23T05:53:39;41.05;;;28.63;;
47251;SDS011;32991;51.374;11.586;2023-02-23T05:56:06;44.65;;;29.52;;
47251;SDS011;32991;51.374;11.586;2023-02-23T05:58:34;40.40;;;28.50;;
47251;SDS011;32991;51.374;11.586;2023-02-23T06:01:06;44.45;;;29.88;;
47251;SDS011;32991;51.374;11.586;2023-02-23T06:03:32;43.83;;;30.38;;
47251;SDS011;32991;51.374;11.586;2023-02-23T06:05:59;42.60;;;30.55;;
47251;SDS011;32991;51.374;11.586;2023-02-23T06:08:26;41.33;;;29.63;;
47251;SDS011;32991;51.374;11.586;2023-02-23T06:10:52;45.30;;;31.02;;
47251;SDS011;32991;51.374;11.586;2023-02-23T06:13:19;49.05;;;31.55;;
47251;SDS011;32991;51.374;11.586;2023-02-23T06:15:46;47.80;;;31.05;;
47251;SDS011;32991;51.374;11.586;2023-02-23T06:18:14;46.10;;;31.77;;
47251;SDS011;32991;51.374;11.586;2023-02-23T06:20:42;45.15;;;31.58;;
47251;SDS011;32991;51.374;11.586;2023-02-23T06:23:08;46.15;;;32.00;;
47251;SDS011;32991;51.374;11.586;2023-02-23T06:25:35;48.80;;;32.55;;
47251;SDS011;32991;51.374;11.586;2023-02-23T06:28:02;44.65;;;31.40;;
47251;SDS011;32991;51.374;11.586;2023-02-23T06:30:29;45.10;;;32.13;;
47251;SDS011;32991;51.374;11.586;2023-02-23T06:32:55;50.50;;;31.33;;
47251;SDS011;32991;51.374;11.586;2023-02-23T06:35:22;45.60;;;31.52;;
47251;SDS011;32991;51.374;11.586;2023-02-23T06:37:49;47.72;;;32.15;;
47251;SDS011;32991;51.374;11.586;2023-02-23T06:40:19;47.58;;;32.60;;
47251;SDS011;32991;51.374;11.586;2023-02-23T06:42:46;50.88;;;32.25;;
47251;SDS011;32991;51.374;11.586;2023-02-23T06:45:13;46.28;;;31.33;;
47251;SDS011;32991;51.374;11.586;2023-02-23T06:47:39;51.55;;;32.40;;
47251;SDS011;32991;51.374;11.586;2023-02-23T06:50:06;47.60;;;31.85;;
47251;SDS011;32991;51.374;11.586;2023-02-23T06:52:34;44.67;;;29.98;;
47251;SDS011;32991;51.374;11.586;2023-02-23T06:55:00;41.72;;;30.00;;
47251;SDS011;32991;51.374;11.586;2023-02-23T06:57:27;49.30;;;32.08;;
47251;SDS011;32991;51.374;11.586;2023-02-23T06:59:53;46.20;;;30.17;;
47251;SDS011;32991;51.374;11.586;2023-02-23T07:02:20;49.13;;;30.30;;
47251;SDS011;32991;51.374;11.586;2023-02-23T07:04:49;48.38;;;31.73;;
47251;SDS011;32991;51.374;11.586;2023-02-23T07:07:16;45.33;;;30.85;;
47251;SDS011;32991;51.374;11.586;2023-02-23T07:09:42;42.00;;;29.10;;
47251;SDS011;32991;51.374;11.586;2023-02-23T07:12:09;41.35;;;28.90;;
47251;SDS011;32991;51.374;11.586;2023-02-23T07:14:36;46.03;;;31.42;;
47251;SDS011;32991;51.374;11.586;2023-02-23T07:17:06;49.85;;;32.53;;
47251;SDS011;32991;51.374;11.586;2023-02-23T07:19:33;50.97;;;32.63;;
47251;SDS011;32991;51.374;11.586;2023-02-23T07:22:07;51.33;;;33.35;;
47251;SDS011;32991;51.374;11.586;2023-02-23T07:24:33;48.58;;;32.97;;
47251;SDS011;32991;51.374;11.586;2023-02-23T07:27:03;44.53;;;32.10;;
47251;SDS011;32991;51.374;11.586;2023-02-23T07:29:32;44.53;;;31.92;;
47251;SDS011;32991;51.374;11.586;2023-02-23T07:31:59;44.58;;;29.42;;
47251;SDS011;32991;51.374;11.586;2023-02-23T07:34:26;42.10;;;29.55;;
47251;SDS011;32991;51.374;11.586;2023-02-23T07:36:53;44.33;;;30.15;;
47251;SDS011;32991;51.374;11.586;2023-02-23T07:39:19;45.58;;;29.48;;
47251;SDS011;32991;51.374;11.586;2023-02-23T07:41:46;45.72;;;29.08;;
47251;SDS011;32991;51.374;11.586;2023-02-23T07:44:17;44.15;;;30.25;;
47251;SDS011;32991;51.374;11.586;2023-02-23T07:46:44;43.75;;;30.17;;
47251;SDS011;32991;51.374;11.586;2023-02-23T07:49:11;39.60;;;27.80;;
47251;SDS011;32991;51.374;11.586;2023-02-23T07:51:39;41.70;;;28.30;;
47251;SDS011;32991;51.374;11.586;2023-02-23T07:54:06;37.78;;;27.50;;
47251;SDS011;32991;51.374;11.586;2023-02-23T07:56:32;39.50;;;27.38;;
47251;SDS011;32991;51.374;11.586;2023-02-23T07:59:01;40.22;;;27.85;;
47251;SDS011;32991;51.374;11.586;2023-02-23T08:01:27;42.63;;;29.17;;
47251;SDS011;32991;51.374;11.586;2023-02-23T08:03:54;43.80;;;30.30;;
47251;SDS011;32991;51.374;11.586;2023-02-23T08:06:21;44.13;;;29.65;;
47251;SDS011;32991;51.374;11.586;2023-02-23T08:08:49;46.72;;;30.88;;
47251;SDS011;32991;51.374;11.586;2023-02-23T08:11:18;44.95;;;30.40;;
47251;SDS011;32991;51.374;11.586;2023-02-23T08:13:46;45.08;;;29.52;;
47251;SDS011;32991;51.374;11.586;2023-02-23T08:16:12;40.58;;;29.13;;
47251;SDS011;32991;51.374;11.586;2023-02-23T08:18:39;38.03;;;26.77;;
47251;SDS011;32991;51.374;11.586;2023-02-23T08:21:06;42.63;;;29.58;;
47251;SDS011;32991;51.374;11.586;2023-02-23T08:23:33;46.20;;;28.38;;
47251;SDS011;32991;51.374;11.586;2023-02-23T08:26:00;34.83;;;26.48;;
47251;SDS011;32991;51.374;11.586;2023-02-23T08:28:28;38.28;;;26.20;;
47251;SDS011;32991;51.374;11.586;2023-02-23T08:30:55;37.92;;;25.77;;
47251;SDS011;32991;51.374;11.586;2023-02-23T08:33:22;36.75;;;26.35;;
47251;SDS011;32991;51.374;11.586;2023-02-23T08:35:49;41.55;;;26.92;;
47251;SDS011;32991;51.374;11.586;2023-02-23T08:38:19;39.78;;;27.50;;
47251;SDS011;32991;51.374;11.586;2023-02-23T08:40:45;44.47;;;28.27;;
47251;SDS011;32991;51.374;11.586;2023-02-23T08:43:15;39.17;;;28.45;;
47251;SDS011;32991;51.374;11.586;2023-02-23T08:45:42;40.05;;;28.65;;
47251;SDS011;32991;51.374;11.586;2023-02-23T08:48:10;39.17;;;29.17;;
47251;SDS011;32991;51.374;11.586;2023-02-23T08:50:36;39.83;;;27.77;;
47251;SDS011;32991;51.374;11.586;2023-02-23T08:53:03;41.17;;;28.77;;
47251;SDS011;32991;51.374;11.586;2023-02-23T08:55:30;39.95;;;27.63;;
47251;SDS011;32991;51.374;11.586;2023-02-23T08:57:57;36.60;;;26.42;;
47251;SDS011;32991;51.374;11.586;2023-02-23T09:00:24;38.33;;;27.20;;
47251;SDS011;32991;51.374;11.586;2023-02-23T09:02:58;39.38;;;28.13;;
47251;SDS011;32991;51.374;11.586;2023-02-23T09:05:27;46.65;;;29.45;;
47251;SDS011;32991;51.374;11.586;2023-02-23T09:07:53;40.47;;;28.83;;
47251;SDS011;32991;51.374;11.586;2023-02-23T09:10:20;39.40;;;28.67;;
47251;SDS011;32991;51.374;11.586;2023-02-23T09:12:49;43.22;;;28.63;;
47251;SDS011;32991;51.374;11.586;2023-02-23T09:15:18;38.50;;;28.60;;
47251;SDS011;32991;51.374;11.586;2023-02-23T09:17:48;40.55;;;28.85;;
47251;SDS011;32991;51.374;11.586;2023-02-23T09:20:15;43.25;;;29.80;;
47251;SDS011;32991;51.374;11.586;2023-02-23T09:22:45;45.33;;;31.35;;
47251;SDS011;32991;51.374;11.586;2023-02-23T09:25:18;43.35;;;31.05;;
47251;SDS011;32991;51.374;11.586;2023-02-23T09:30:16;44.67;;;30.85;;
47251;SDS011;32991;51.374;11.586;2023-02-23T09:32:46;45.88;;;31.92;;
47251;SDS011;32991;51.374;11.586;2023-02-23T09:35:14;45.28;;;31.83;;
47251;SDS011;32991;51.374;11.586;2023-02-23T09:37:45;47.85;;;33.83;;
47251;SDS011;32991;51.374;11.586;2023-02-23T09:40:24;50.35;;;33.60;;
47251;SDS011;32991;51.374;11.586;2023-02-23T09:43:03;49.10;;;33.35;;
47251;SDS011;32991;51.374;11.586;2023-02-23T09:45:37;46.10;;;33.97;;
47251;SDS011;32991;51.374;11.586;2023-02-23T09:48:13;48.25;;;34.58;;
47251;SDS011;32991;51.374;11.586;2023-02-23T09:50:43;48.70;;;33.55;;
47251;SDS011;32991;51.374;11.586;2023-02-23T09:56:10;47.35;;;34.08;;
47251;SDS011;32991;51.374;11.586;2023-02-23T09:58:47;46.78;;;34.72;;
47251;SDS011;32991;51.374;11.586;2023-02-23T10:04:06;46.63;;;34.38;;
47251;SDS011;32991;51.374;11.586;2023-02-23T10:06:38;54.90;;;37.58;;
47251;SDS011;32991;51.374;11.586;2023-02-23T10:14:47;53.78;;;35.90;;
47251;SDS011;32991;51.374;11.586;2023-02-23T10:17:29;53.38;;;37.53;;
47251;SDS011;32991;51.374;11.586;2023-02-23T10:20:25;55.50;;;37.97;;
47251;SDS011;32991;51.374;11.586;2023-02-23T10:22:54;59.15;;;38.95;;
47251;SDS011;32991;51.374;11.586;2023-02-23T10:25:23;61.78;;;40.60;;
47251;SDS011;32991;51.374;11.586;2023-02-23T10:27:51;59.10;;;39.85;;
47251;SDS011;32991;51.374;11.586;2023-02-23T10:30:25;59.00;;;39.33;;
47251;SDS011;32991;51.374;11.586;2023-02-23T10:33:09;63.47;;;41.70;;
47251;SDS011;32991;51.374;11.586;2023-02-23T10:35:42;64.63;;;42.67;;
47251;SDS011;32991;51.374;11.586;2023-02-23T10:38:13;61.20;;;41.70;;
47251;SDS011;32991;51.374;11.586;2023-02-23T10:40:40;67.43;;;42.63;;
47251;SDS011;32991;51.374;11.586;2023-02-23T10:43:08;61.28;;;41.50;;
47251;SDS011;32991;51.374;11.586;2023-02-23T10:45:43;63.53;;;43.58;;
47251;SDS011;32991;51.374;11.586;2023-02-23T10:48:17;61.83;;;43.38;;
47251;SDS011;32991;51.374;11.586;2023-02-23T10:50:46;65.32;;;44.15;;
47251;SDS011;32991;51.374;11.586;2023-02-23T10:53:20;70.15;;;44.63;;
47251;SDS011;32991;51.374;11.586;2023-02-23T10:55:59;63.53;;;43.42;;
47251;SDS011;32991;51.374;11.586;2023-02-23T10:58:38;69.88;;;43.67;;
47251;SDS011;32991;51.374;11.586;2023-02-23T11:01:09;62.83;;;43.67;;
47251;SDS011;32991;51.374;11.586;2023-02-23T11:03:37;60.53;;;42.53;;
47251;SDS011;32991;51.374;11.586;2023-02-23T11:08:59;63.63;;;41.75;;
47251;SDS011;32991;51.374;11.586;2023-02-23T11:11:47;68.47;;;44.65;;
47251;SDS011;32991;51.374;11.586;2023-02-23T11:14:28;70.82;;;43.80;;
47251;SDS011;32991;51.374;11.586;2023-02-23T11:16:56;72.75;;;45.15;;
47251;SDS011;32991;51.374;11.586;2023-02-23T11:19:29;66.65;;;44.10;;
47251;SDS011;32991;51.374;11.586;2023-02-23T11:21:59;62.50;;;42.22;;
47251;SDS011;32991;51.374;11.586;2023-02-23T11:24:35;63.17;;;41.78;;
47251;SDS011;32991;51.374;11.586;2023-02-23T11:27:05;63.58;;;42.25;;
47251;SDS011;32991;51.374;11.586;2023-02-23T11:29:42;63.80;;;41.75;;
47251;SDS011;32991;51.374;11.586;2023-02-23T11:32:16;62.85;;;41.40;;
47251;SDS011;32991;51.374;11.586;2023-02-23T11:34:46;61.22;;;40.63;;
47251;SDS011;32991;51.374;11.586;2023-02-23T11:39:53;59.40;;;40.20;;
47251;SDS011;32991;51.374;11.586;2023-02-23T11:42:26;55.17;;;40.42;;
47251;SDS011;32991;51.374;11.586;2023-02-23T11:45:03;60.15;;;41.13;;
47251;SDS011;32991;51.374;11.586;2023-02-23T11:47:43;55.72;;;38.60;;
47251;SDS011;32991;51.374;11.586;2023-02-23T11:50:26;54.72;;;37.33;;
47251;SDS011;32991;51.374;11.586;2023-02-23T11:52:55;53.97;;;37.65;;
47251;SDS011;32991;51.374;11.586;2023-02-23T11:55:32;53.33;;;37.45;;
47251;SDS011;32991;51.374;11.586;2023-02-23T11:58:10;58.55;;;38.50;;
47251;SDS011;32991;51.374;11.586;2023-02-23T12:01:03;54.88;;;37.75;;
47251;SDS011;32991;51.374;11.586;2023-02-23T12:03:42;58.33;;;39.17;;
47251;SDS011;32991;51.374;11.586;2023-02-23T12:06:24;57.50;;;38.92;;
47251;SDS011;32991;51.374;11.586;2023-02-23T12:09:01;58.47;;;38.60;;
47251;SDS011;32991;51.374;11.586;2023-02-23T12:11:33;57.58;;;38.75;;
47251;SDS011;32991;51.374;11.586;2023-02-23T12:14:09;57.28;;;38.65;;
47251;SDS011;32991;51.374;11.586;2023-02-23T12:16:52;59.10;;;38.60;;
47251;SDS011;32991;51.374;11.586;2023-02-23T12:19:27;55.00;;;38.08;;
47251;SDS011;32991;51.374;11.586;2023-02-23T12:22:11;61.67;;;39.38;;
47251;SDS011;32991;51.374;11.586;2023-02-23T12:24:43;57.97;;;37.38;;
47251;SDS011;32991;51.374;11.586;2023-02-23T12:27:17;65.40;;;36.90;;
47251;SDS011;32991;51.374;11.586;2023-02-23T12:29:51;57.90;;;36.92;;
47251;SDS011;32991;51.374;11.586;2023-02-23T12:32:25;53.80;;;36.67;;
47251;SDS011;32991;51.374;11.586;2023-02-23T12:35:00;52.03;;;34.83;;
47251;SDS011;32991;51.374;11.586;2023-02-23T12:37:38;48.47;;;35.53;;
47251;SDS011;32991;51.374;11.586;2023-02-23T12:40:43;51.90;;;35.42;;
47251;SDS011;32991;51.374;11.586;2023-02-23T12:43:14;51.42;;;34.83;;
47251;SDS011;32991;51.374;11.586;2023-02-23T12:45:49;50.78;;;34.17;;
47251;SDS011;32991;51.374;11.586;2023-02-23T12:51:29;53.17;;;33.60;;
47251;SDS011;32991;51.374;11.586;2023-02-23T12:53:59;50.33;;;33.42;;
47251;SDS011;32991;51.374;11.586;2023-02-23T12:56:42;50.97;;;32.90;;
47251;SDS011;32991;51.374;11.586;2023-02-23T12:59:31;46.47;;;33.08;;
47251;SDS011;32991;51.374;11.586;2023-02-23T13:02:12;50.10;;;33.88;;
47251;SDS011;32991;51.374;11.586;2023-02-23T13:07:19;52.15;;;34.10;;
47251;SDS011;32991;51.374;11.586;2023-02-23T13:09:52;50.92;;;33.15;;
47251;SDS011;32991;51.374;11.586;2023-02-23T13:15:28;54.33;;;36.27;;
47251;SDS011;32991;51.374;11.586;2023-02-23T13:18:04;50.83;;;34.70;;
47251;SDS011;32991;51.374;11.586;2023-02-23T13:20:50;50.23;;;34.87;;
47251;SDS011;32991;51.374;11.586;2023-02-23T13:23:28;49.65;;;36.20;;
47251;SDS011;32991;51.374;11.586;2023-02-23T13:29:02;53.15;;;35.47;;
47251;SDS011;32991;51.374;11.586;2023-02-23T13:31:32;58.58;;;37.42;;
47251;SDS011;32991;51.374;11.586;2023-02-23T13:34:01;54.85;;;36.17;;
47251;SDS011;32991;51.374;11.586;2023-02-23T13:36:31;49.88;;;35.35;;
47251;SDS011;32991;51.374;11.586;2023-02-23T13:41:55;52.13;;;37.42;;
47251;SDS011;32991;51.374;11.586;2023-02-23T13:47:33;59.65;;;39.50;;
47251;SDS011;32991;51.374;11.586;2023-02-23T13:52:48;60.45;;;38.78;;
47251;SDS011;32991;51.374;11.586;2023-02-23T13:58:21;61.53;;;41.08;;
47251;SDS011;32991;51.374;11.586;2023-02-23T14:01:02;58.95;;;38.05;;
47251;SDS011;32991;51.374;11.586;2023-02-23T14:03:31;60.72;;;40.50;;
47251;SDS011;32991;51.374;11.586;2023-02-23T14:06:05;56.85;;;38.10;;
47251;SDS011;32991;51.374;11.586;2023-02-23T14:08:34;58.35;;;39.08;;
47251;SDS011;32991;51.374;11.586;2023-02-23T14:11:01;59.55;;;41.10;;
47251;SDS011;32991;51.374;11.586;2023-02-23T14:13:30;57.95;;;40.10;;
47251;SDS011;32991;51.374;11.586;2023-02-23T14:16:13;60.60;;;40.88;;
47251;SDS011;32991;51.374;11.586;2023-02-23T14:31:51;60.33;;;40.03;;
47251;SDS011;32991;51.374;11.586;2023-02-23T14:34:22;64.95;;;40.67;;
47251;SDS011;32991;51.374;11.586;2023-02-23T14:37:13;63.30;;;41.17;;
47251;SDS011;32991;51.374;11.586;2023-02-23T14:39:44;61.38;;;41.10;;
47251;SDS011;32991;51.374;11.586;2023-02-23T14:42:22;66.20;;;41.80;;
47251;SDS011;32991;51.374;11.586;2023-02-23T14:44:51;66.05;;;40.50;;
47251;SDS011;32991;51.374;11.586;2023-02-23T14:47:20;66.38;;;41.83;;
47251;SDS011;32991;51.374;11.586;2023-02-23T14:49:56;64.85;;;41.88;;
47251;SDS011;32991;51.374;11.586;2023-02-23T14:52:26;61.17;;;41.22;;
47251;SDS011;32991;51.374;11.586;2023-02-23T14:55:05;66.22;;;42.03;;
47251;SDS011;32991;51.374;11.586;2023-02-23T14:57:46;62.90;;;40.53;;
47251;SDS011;32991;51.374;11.586;2023-02-23T15:00:17;61.63;;;40.30;;
47251;SDS011;32991;51.374;11.586;2023-02-23T15:02:56;65.43;;;40.78;;
47251;SDS011;32991;51.374;11.586;2023-02-23T15:05:31;62.13;;;40.97;;
47251;SDS011;32991;51.374;11.586;2023-02-23T15:07:59;66.93;;;41.58;;
47251;SDS011;32991;51.374;11.586;2023-02-23T15:10:36;66.55;;;42.17;;
47251;SDS011;32991;51.374;11.586;2023-02-23T15:13:11;69.18;;;42.22;;
47251;SDS011;32991;51.374;11.586;2023-02-23T15:15:43;65.85;;;41.28;;
47251;SDS011;32991;51.374;11.586;2023-02-23T15:21:53;70.63;;;44.45;;
47251;SDS011;32991;51.374;11.586;2023-02-23T15:24:23;73.88;;;48.33;;
47251;SDS011;32991;51.374;11.586;2023-02-23T15:26:56;79.35;;;50.13;;
47251;SDS011;32991;51.374;11.586;2023-02-23T15:29:24;80.82;;;48.38;;
47251;SDS011;32991;51.374;11.586;2023-02-23T15:31:55;77.47;;;46.78;;
47251;SDS011;32991;51.374;11.586;2023-02-23T15:34:40;71.45;;;44.15;;
47251;SDS011;32991;51.374;11.586;2023-02-23T15:37:10;74.05;;;43.65;;
47251;SDS011;32991;51.374;11.586;2023-02-23T15:39:50;76.03;;;45.25;;
47251;SDS011;32991;51.374;11.586;2023-02-23T15:42:21;85.93;;;45.78;;
47251;SDS011;32991;51.374;11.586;2023-02-23T15:44:54;78.82;;;45.80;;
47251;SDS011;32991;51.374;11.586;2023-02-23T15:47:24;83.10;;;46.90;;
47251;SDS011;32991;51.374;11.586;2023-02-23T15:50:03;83.68;;;47.58;;
47251;SDS011;32991;51.374;11.586;2023-02-23T15:52:46;79.88;;;45.65;;
47251;SDS011;32991;51.374;11.586;2023-02-23T15:55:17;81.05;;;46.45;;
47251;SDS011;32991;51.374;11.586;2023-02-23T15:57:52;75.00;;;44.92;;
47251;SDS011;32991;51.374;11.586;2023-02-23T16:00:36;88.45;;;47.20;;
47251;SDS011;32991;51.374;11.586;2023-02-23T16:03:05;90.78;;;50.28;;
47251;SDS011;32991;51.374;11.586;2023-02-23T16:05:35;92.10;;;50.00;;
47251;SDS011;32991;51.374;11.586;2023-02-23T16:10:50;89.90;;;47.90;;
47251;SDS011;32991;51.374;11.586;2023-02-23T16:13:20;84.97;;;47.45;;
47251;SDS011;32991;51.374;11.586;2023-02-23T16:15:47;80.50;;;47.85;;
47251;SDS011;32991;51.374;11.586;2023-02-23T16:18:16;84.75;;;47.25;;
47251;SDS011;32991;51.374;11.586;2023-02-23T16:26:00;101.05;;;51.17;;
47251;SDS011;32991;51.374;11.586;2023-02-23T16:28:32;98.95;;;49.97;;
47251;SDS011;32991;51.374;11.586;2023-02-23T16:31:00;97.90;;;51.28;;
47251;SDS011;32991;51.374;11.586;2023-02-23T16:33:30;98.68;;;50.92;;